»·PEaware :: N515ZT KSMX-KBFL

N515ZT :: KSMX-KBFL

FLIGHT INFORMATION

Flight Status: Arrived
Operator: Privately registered:
United States
More flights under this callsign
Pilot: Marty P. (27464)
Aircraft: BEECH AIRCRAFT BARON
(BE58)
More flights by this aircraft type
Origin: KSMX Santa Maria Pub/Capt Hancock
United States
Destination: KBFL Meadows
United States
More flights between these airports :: More routes between these airports
Route: KSMX FLW FASTO KBFL
File this flight plan on PilotEdge
Remarks:
Altitude:
(Current/Filed)
7,500ft
Speed:
(Current/Filed)
180kts
Departed: 12-Jan-20 08:02 PM
Arrived: 12-Jan-20 08:59 PM
Distance/Time
Traveled:
76nm/0:57
Distance/Time
To Go:
Arrived

Flight Plot

Page will automatically refresh every two minutes.

Flight plan parsing failed; only flown route is shown


Map Options




Map Legend


Flown Route
Filed Route
Departure Airport
Arrival Airport
Navaid (VOR, NDB)
Fix

Horizontal Profiles

Position Reports

Time Latitude Longitude Heading Altitude Ground
Speed
12-Jan-20 19:42 34.896951 -120.446145 273 265ft 0kts
12-Jan-20 19:43 34.896951 -120.446145 273 265ft 0kts
12-Jan-20 19:44 34.896951 -120.446145 273 265ft 0kts
12-Jan-20 19:45 34.896951 -120.446146 273 265ft 0kts
12-Jan-20 19:46 34.896951 -120.446145 273 265ft 0kts
12-Jan-20 19:47 34.896951 -120.446145 273 265ft 0kts
12-Jan-20 19:48 34.896951 -120.446145 273 265ft 0kts
12-Jan-20 19:49 34.896951 -120.446145 273 265ft 0kts
12-Jan-20 19:50 34.896951 -120.446145 273 265ft 0kts
12-Jan-20 19:51 34.896951 -120.446145 273 265ft 0kts
12-Jan-20 19:52 34.896951 -120.446145 273 265ft 0kts
12-Jan-20 19:53 34.896951 -120.446145 273 265ft 0kts
12-Jan-20 19:54 34.896951 -120.446145 273 265ft 0kts
12-Jan-20 19:55 34.896951 -120.446146 273 265ft 0kts
12-Jan-20 19:56 34.896356 -120.447639 136 265ft 8kts
12-Jan-20 19:57 34.895054 -120.446096 136 265ft 15kts
12-Jan-20 19:58 34.894125 -120.444907 165 265ft 1kts
12-Jan-20 19:59 34.893422 -120.445217 180 265ft 0kts
12-Jan-20 20:00 34.893387 -120.445217 180 265ft 4kts
12-Jan-20 20:01 34.894258 -120.447637 315 265ft 68kts
12-Jan-20 20:02 34.908720 -120.466244 313 1001ft 124kts
12-Jan-20 20:03 34.928162 -120.480581 12 2060ft 134kts
12-Jan-20 20:04 34.936246 -120.454890 93 3122ft 143kts
12-Jan-20 20:05 34.932555 -120.422733 93 4131ft 145kts
12-Jan-20 20:06 34.928827 -120.390786 91 5095ft 145kts
12-Jan-20 20:07 34.932493 -120.360855 62 6007ft 136kts
12-Jan-20 20:08 34.941095 -120.332905 57 6981ft 135kts
12-Jan-20 20:09 34.949854 -120.306009 57 7688ft 133kts
12-Jan-20 20:10 34.959988 -120.275727 60 7489ft 184kts
12-Jan-20 20:11 34.971460 -120.240121 61 7508ft 194kts
12-Jan-20 20:12 34.983575 -120.202988 61 7487ft 197kts
12-Jan-20 20:13 34.995353 -120.166852 62 7478ft 198kts
12-Jan-20 20:14 35.006056 -120.134001 62 7476ft 199kts
12-Jan-20 20:15 35.016963 -120.100495 62 7474ft 200kts
12-Jan-20 20:16 35.029107 -120.063144 63 7472ft 200kts
12-Jan-20 20:17 35.041151 -120.026061 63 7470ft 201kts
12-Jan-20 20:18 35.053238 -119.988764 63 7493ft 192kts
12-Jan-20 20:19 35.065110 -119.952096 63 7475ft 199kts
12-Jan-20 20:20 35.077107 -119.915013 63 7451ft 201kts
12-Jan-20 20:21 35.088935 -119.878412 63 7439ft 201kts
12-Jan-20 20:22 35.097708 -119.839527 73 7442ft 204kts
12-Jan-20 20:23 35.104752 -119.801510 73 7440ft 204kts
12-Jan-20 20:24 35.111826 -119.762812 73 7436ft 205kts
12-Jan-20 20:25 35.118496 -119.725990 73 7445ft 204kts
12-Jan-20 20:26 35.125482 -119.687411 72 7452ft 202kts
12-Jan-20 20:27 35.132407 -119.649174 72 7460ft 200kts
12-Jan-20 20:28 35.138804 -119.613813 71 7468ft 198kts
12-Jan-20 20:29 35.145086 -119.579033 71 7472ft 196kts
12-Jan-20 20:30 35.151542 -119.543252 70 7485ft 193kts
12-Jan-20 20:31 35.158297 -119.505835 70 7488ft 192kts
12-Jan-20 20:32 35.164972 -119.468673 70 7489ft 191kts
12-Jan-20 20:33 35.171286 -119.433453 70 7493ft 191kts
12-Jan-20 20:34 35.177569 -119.398363 70 7486ft 191kts
12-Jan-20 20:35 35.183968 -119.362490 70 7488ft 191kts
12-Jan-20 20:36 35.190305 -119.326930 71 7485ft 191kts
12-Jan-20 20:37 35.196759 -119.290646 71 7488ft 191kts
12-Jan-20 20:38 35.203061 -119.254949 70 7505ft 190kts
12-Jan-20 20:39 35.209298 -119.219942 70 7496ft 190kts
12-Jan-20 20:40 35.215501 -119.184876 70 7498ft 190kts
12-Jan-20 20:42 35.222256 -119.146833 71 6877ft 209kts
12-Jan-20 20:43 35.229444 -119.105938 72 6106ft 214kts
12-Jan-20 20:44 35.235346 -119.072357 72 5510ft 213kts
12-Jan-20 20:45 35.240965 -119.040349 73 4900ft 213kts
12-Jan-20 20:46 35.247233 -119.004580 73 4222ft 211kts
12-Jan-20 20:47 35.254574 -118.962643 74 3341ft 210kts
12-Jan-20 20:48 35.261360 -118.923534 73 3320ft 178kts
12-Jan-20 20:49 35.267199 -118.890301 73 3491ft 179kts
12-Jan-20 20:50 35.285148 -118.872957 345 3486ft 165kts
12-Jan-20 20:51 35.304001 -118.898262 312 3561ft 171kts
12-Jan-20 20:52 35.323190 -118.923092 317 3466ft 175kts
12-Jan-20 20:53 35.343937 -118.948302 317 2912ft 192kts
12-Jan-20 20:54 35.366297 -118.975460 317 1959ft 195kts
12-Jan-20 20:55 35.386425 -119.000067 317 1851ft 180kts
12-Jan-20 20:56 35.405965 -119.022628 316 1260ft 143kts
12-Jan-20 20:57 35.419130 -119.038905 316 955ft 111kts
12-Jan-20 20:58 35.433171 -119.055345 317 519ft 84kts
12-Jan-20 20:59 35.436275 -119.057782 65 510ft 0kts
12-Jan-20 21:00 35.436066 -119.056657 134 510ft 10kts
12-Jan-20 21:00 35.434928 -119.055282 135 510ft 23kts
12-Jan-20 21:02 35.435530 -119.052384 57 510ft 14kts
12-Jan-20 21:03 35.435733 -119.053083 167 510ft 0kts

Navigation Log

Ident Type
Flight plan parsing failed, navigation log unavailable